Station Historical Data
Daily Summary for April 1, 2017 Units:  English    Metric   Both
Next Day »
Daily Weekly Monthly Yearly Custom
  High: Low: Average:
Temperature: 68.4 °F 48.2 °F 56.8 °F
Dew Point: 49.0 °F 33.6 °F 41.5 °F
Humidity: 76% 43% 57%
Wind Speed: 16.0mph 0.0mph 1.5mph
Wind Gust: 28.0mph - -
Wind- - SSW
Pressure: 30.08 in 30.01 in -
Precipitation: 0.00 in    
Historical Graphs
 
 
Tabular Data for April 1, 2017
Time Temperature Dew Point Pressure Wind Wind Speed Wind Gust Humidity Rainfall Rate (Hourly) solar Conditions
00:01 48.9 °F 33.9 °F 30.06 in Calm     56% 0.00 in 0.00 W/m2
00:06 48.9 °F 34.3 °F 30.06 in Calm     57% 0.00 in 0.00 W/m2
00:11 48.9 °F 33.9 °F 30.06 in Calm     56% 0.00 in 0.00 W/m2
00:16 48.9 °F 35.2 °F 30.06 in Calm     59% 0.00 in 0.00 W/m2
00:26 48.7 °F 33.7 °F 30.06 in Calm     56% 0.00 in 0.00 W/m2
00:31 48.6 °F 34.1 °F 30.07 in Calm     57% 0.00 in 0.00 W/m2
00:36 48.6 °F 33.6 °F 30.06 in Calm     56% 0.00 in 0.00 W/m2
00:37 48.6 °F 34.1 °F 30.06 in Calm     57% 0.00 in 0.00 W/m2
00:42 48.6 °F 34.5 °F 30.07 in Calm     58% 0.00 in 0.00 W/m2
00:47 48.7 °F 33.7 °F 30.07 in Calm     56% 0.00 in 0.00 W/m2
00:52 48.6 °F 34.9 °F 30.07 in Calm     59% 0.00 in 0.00 W/m2
00:57 48.6 °F 34.1 °F 30.07 in Calm     57% 0.00 in 0.00 W/m2
01:02 48.6 °F 34.1 °F 30.08 in Calm   1.0 mph 57% 0.00 in 0.00 W/m2
01:07 48.6 °F 34.9 °F 30.07 in Calm     59% 0.00 in 0.00 W/m2
01:12 48.5 °F 34.4 °F 30.07 in North 1.0 mph 3.0 mph 58% 0.00 in 0.00 W/m2
01:17 48.4 °F 33.9 °F 30.07 in Calm   5.0 mph 57% 0.00 in 0.00 W/m2
01:22 48.3 °F 34.2 °F 30.07 in NNE 1.0 mph 7.0 mph 58% 0.00 in 0.00 W/m2
01:27 48.3 °F 34.2 °F 30.07 in Calm     58% 0.00 in 0.00 W/m2
01:32 48.2 °F 34.1 °F 30.07 in North 2.0 mph 3.0 mph 58% 0.00 in 0.00 W/m2
01:37 48.2 °F 34.1 °F 30.06 in North 3.0 mph 5.0 mph 58% 0.00 in 0.00 W/m2
01:42 48.3 °F 34.7 °F 30.06 in North 2.0 mph 5.0 mph 59% 0.00 in 0.00 W/m2
01:47 48.3 °F 35.1 °F 30.05 in North 4.0 mph 6.0 mph 60% 0.00 in 0.00 W/m2
01:52 48.3 °F 34.2 °F 30.05 in North 3.0 mph 5.0 mph 58% 0.00 in 0.00 W/m2
01:57 48.4 °F 35.2 °F 30.05 in NNE 3.0 mph 6.0 mph 60% 0.00 in 0.00 W/m2
02:02 48.6 °F 34.9 °F 30.05 in Calm   6.0 mph 59% 0.00 in 0.00 W/m2
02:07 48.7 °F 34.2 °F 30.05 in NE 3.0 mph 7.0 mph 57% 0.00 in 0.00 W/m2
02:12 48.8 °F 34.3 °F 30.05 in NNE 3.0 mph 6.0 mph 57% 0.00 in 0.00 W/m2
02:18 48.9 °F 35.2 °F 30.05 in NE 1.0 mph 8.0 mph 59% 0.00 in 0.00 W/m2
02:23 48.8 °F 36.0 °F 30.05 in ENE 2.0 mph 7.0 mph 61% 0.00 in 0.00 W/m2
02:28 48.6 °F 34.9 °F 30.04 in Calm   3.0 mph 59% 0.00 in 0.00 W/m2
02:33 48.5 °F 34.8 °F 30.04 in NE 2.0 mph 11.0 mph 59% 0.00 in 0.00 W/m2
02:38 48.5 °F 34.4 °F 30.04 in NE 4.0 mph 11.0 mph 58% 0.00 in 0.00 W/m2
02:43 48.5 °F 35.7 °F 30.03 in ENE 1.0 mph 12.0 mph 61% 0.00 in 0.00 W/m2
02:48 48.5 °F 35.3 °F 30.03 in Calm   4.0 mph 60% 0.00 in 0.00 W/m2
02:53 48.5 °F 34.4 °F 30.03 in NE 2.0 mph 14.0 mph 58% 0.00 in 0.00 W/m2
02:58 48.6 °F 35.4 °F 30.02 in ENE 4.0 mph 8.0 mph 60% 0.00 in 0.00 W/m2
03:03 48.7 °F 35.0 °F 30.02 in ENE 8.0 mph 14.0 mph 59% 0.00 in 0.00 W/m2
03:08 48.8 °F 35.1 °F 30.02 in ENE 2.0 mph 14.0 mph 59% 0.00 in 0.00 W/m2
03:13 49.0 °F 35.3 °F 30.02 in East 1.0 mph 12.0 mph 59% 0.00 in 0.00 W/m2
03:18 49.2 °F 34.6 °F 30.02 in ENE 6.0 mph 10.0 mph 57% 0.00 in 0.00 W/m2
03:23 49.6 °F 34.6 °F 30.02 in East 1.0 mph 18.0 mph 56% 0.00 in 0.00 W/m2
03:28 49.9 °F 34.4 °F 30.02 in ENE 1.0 mph 7.0 mph 55% 0.00 in 0.00 W/m2
03:33 50.2 °F 35.1 °F 30.02 in NE 4.0 mph 16.0 mph 56% 0.00 in 0.00 W/m2
03:38 50.4 °F 35.3 °F 30.01 in Calm   11.0 mph 56% 0.00 in 0.00 W/m2
03:43 50.5 °F 35.4 °F 30.01 in ENE 1.0 mph 25.0 mph 56% 0.00 in 0.00 W/m2
03:48 50.9 °F 33.9 °F 30.01 in East 16.0 mph 28.0 mph 52% 0.00 in 0.00 W/m2
03:53 51.5 °F 34.5 °F 30.02 in East 3.0 mph 20.0 mph 52% 0.00 in 0.00 W/m2
03:58 51.9 °F 35.8 °F 30.02 in Calm   14.0 mph 54% 0.00 in 0.00 W/m2
04:03 51.9 °F 35.8 °F 30.03 in Calm   9.0 mph 54% 0.00 in 0.00 W/m2
04:08 51.9 °F 35.8 °F 30.03 in ENE 4.0 mph 7.0 mph 54% 0.00 in 0.00 W/m2
04:13 51.7 °F 36.1 °F 30.03 in Calm   13.0 mph 55% 0.00 in 0.00 W/m2
04:18 51.4 °F 35.3 °F 30.03 in Calm   6.0 mph 54% 0.00 in 0.00 W/m2
04:23 51.3 °F 35.7 °F 30.03 in NE 9.0 mph 20.0 mph 55% 0.00 in 0.00 W/m2
04:29 51.1 °F 36.0 °F 30.03 in ENE 5.0 mph 13.0 mph 56% 0.00 in 0.00 W/m2
04:34 51.0 °F 35.9 °F 30.04 in ENE 6.0 mph 10.0 mph 56% 0.00 in 0.00 W/m2
04:39 50.9 °F 35.8 °F 30.03 in East 4.0 mph 15.0 mph 56% 0.00 in 0.00 W/m2
04:44 50.8 °F 35.2 °F 30.04 in Calm   12.0 mph 55% 0.00 in 0.00 W/m2
04:49 50.8 °F 35.7 °F 30.04 in East 3.0 mph 8.0 mph 56% 0.00 in 0.00 W/m2
04:54 50.7 °F 35.6 °F 30.04 in ENE 3.0 mph 13.0 mph 56% 0.00 in 0.00 W/m2
04:59 50.7 °F 35.6 °F 30.05 in Calm   11.0 mph 56% 0.00 in 0.00 W/m2
05:04 50.6 °F 35.5 °F 30.04 in Calm   4.0 mph 56% 0.00 in 0.00 W/m2
05:09 50.5 °F 35.4 °F 30.04 in Calm   17.0 mph 56% 0.00 in 0.00 W/m2
05:14 50.5 °F 35.4 °F 30.04 in Calm   5.0 mph 56% 0.00 in 0.00 W/m2
05:19 50.4 °F 35.3 °F 30.05 in Calm   2.0 mph 56% 0.00 in 0.00 W/m2
05:24 50.3 °F 36.1 °F 30.05 in Calm   3.0 mph 58% 0.00 in 0.00 W/m2
05:29 50.2 °F 35.1 °F 30.05 in Calm   5.0 mph 56% 0.00 in 0.00 W/m2
05:34 50.1 °F 35.9 °F 30.05 in Calm   3.0 mph 58% 0.00 in 0.00 W/m2
05:39 49.9 °F 35.3 °F 30.05 in Calm   6.0 mph 57% 0.00 in 0.00 W/m2
05:44 49.7 °F 35.1 °F 30.05 in Calm     57% 0.00 in 0.00 W/m2
05:49 49.5 °F 34.5 °F 30.05 in Calm   2.0 mph 56% 0.00 in 0.00 W/m2
05:54 49.4 °F 34.8 °F 30.04 in Calm     57% 0.00 in 0.00 W/m2
05:59 49.2 °F 33.7 °F 30.04 in NE 2.0 mph 4.0 mph 55% 0.00 in 0.00 W/m2
06:04 49.2 °F 33.7 °F 30.04 in ENE 3.0 mph 3.0 mph 55% 0.00 in 0.00 W/m2
06:09 49.2 °F 33.7 °F 30.04 in NE 2.0 mph 7.0 mph 55% 0.00 in 0.00 W/m2
06:14 49.1 °F 34.5 °F 30.04 in ENE 1.0 mph 14.0 mph 57% 0.00 in 0.00 W/m2
06:19 49.1 °F 35.0 °F 30.03 in ENE 6.0 mph 8.0 mph 58% 0.00 in 0.00 W/m2
06:24 49.1 °F 35.8 °F 30.04 in East 11.0 mph 15.0 mph 60% 0.00 in 0.00 W/m2
06:29 49.2 °F 35.1 °F 30.03 in East 5.0 mph 20.0 mph 58% 0.00 in 0.00 W/m2
06:34 49.4 °F 34.8 °F 30.03 in Calm   17.0 mph 57% 0.00 in 0.00 W/m2
06:39 49.8 °F 34.8 °F 30.02 in NE 11.0 mph 22.0 mph 56% 0.00 in 7.00 W/m2
06:44 50.2 °F 35.1 °F 30.02 in Calm   21.0 mph 56% 0.00 in 12.00 W/m2
06:49 50.6 °F 34.6 °F 30.03 in ESE 1.0 mph 20.0 mph 54% 0.00 in 12.00 W/m2
06:54 51.0 °F 34.5 °F 30.03 in ESE 14.0 mph 22.0 mph 53% 0.00 in 14.00 W/m2
06:59 51.5 °F 35.0 °F 30.03 in ESE 1.0 mph 21.0 mph 53% 0.00 in 21.00 W/m2
07:04 51.9 °F 34.8 °F 30.04 in East 4.0 mph 18.0 mph 52% 0.00 in 30.00 W/m2
07:09 52.1 °F 35.5 °F 30.04 in Calm   19.0 mph 53% 0.00 in 35.00 W/m2
07:14 52.2 °F 35.1 °F 30.04 in Calm   16.0 mph 52% 0.00 in 44.00 W/m2
07:19 52.3 °F 37.1 °F 30.04 in ENE 3.0 mph 9.0 mph 56% 0.00 in 58.00 W/m2
07:25 52.1 °F 37.3 °F 30.05 in NE 6.0 mph 8.0 mph 57% 0.00 in 72.00 W/m2
07:30 51.8 °F 36.6 °F 30.05 in East 4.0 mph 9.0 mph 56% 0.00 in 93.00 W/m2
07:35 51.6 °F 38.2 °F 30.05 in ENE 6.0 mph 12.0 mph 60% 0.00 in 93.00 W/m2
07:40 51.4 °F 38.0 °F 30.05 in ENE 1.0 mph 10.0 mph 60% 0.00 in 137.00 W/m2
07:45 51.2 °F 37.8 °F 30.05 in Calm   8.0 mph 60% 0.00 in 163.00 W/m2
07:50 51.0 °F 38.5 °F 30.06 in NE 4.0 mph 7.0 mph 62% 0.00 in 192.00 W/m2
07:55 50.9 °F 37.5 °F 30.05 in Calm   5.0 mph 60% 0.00 in 220.00 W/m2
07:58 50.9 °F 37.5 °F 30.05 in ENE 5.0 mph 8.0 mph 60% 0.00 in 234.00 W/m2
08:03 50.8 °F 37.8 °F 30.05 in Calm   7.0 mph 61% 0.00 in 257.00 W/m2
08:04 50.8 °F 37.4 °F 30.05 in Calm   7.0 mph 60% 0.00 in 257.00 W/m2
08:09 50.8 °F 38.3 °F 30.05 in NE 1.0 mph 2.0 mph 62% 0.00 in 276.00 W/m2
08:14 50.8 °F 37.8 °F 30.06 in Calm     61% 0.00 in 299.00 W/m2
08:19 50.8 °F 37.4 °F 30.05 in Calm     60% 0.00 in 325.00 W/m2
08:24 50.8 °F 37.0 °F 30.05 in Calm     59% 0.00 in 350.00 W/m2
08:29 51.0 °F 37.2 °F 30.05 in Calm     59% 0.00 in 387.00 W/m2
08:34 51.2 °F 36.5 °F 30.05 in Calm     57% 0.00 in 360.00 W/m2
08:39 51.5 °F 37.2 °F 30.06 in Calm     58% 0.00 in 269.00 W/m2
08:44 51.9 °F 36.7 °F 30.06 in Calm     56% 0.00 in 469.00 W/m2
08:49 52.2 °F 38.3 °F 30.06 in Calm   3.0 mph 59% 0.00 in 441.00 W/m2
08:54 52.4 °F 38.5 °F 30.06 in Calm   3.0 mph 59% 0.00 in 193.00 W/m2
08:59 52.4 °F 38.1 °F 30.06 in Calm     58% 0.00 in 211.00 W/m2
09:04 52.6 °F 39.1 °F 30.06 in Calm     60% 0.00 in 213.00 W/m2
09:09 52.7 °F 39.6 °F 30.06 in Calm     61% 0.00 in 334.00 W/m2
09:14 52.7 °F 39.6 °F 30.06 in Calm     61% 0.00 in 350.00 W/m2
09:19 52.8 °F 39.3 °F 30.07 in Calm     60% 0.00 in 383.00 W/m2
09:24 52.9 °F 40.2 °F 30.07 in Calm     62% 0.00 in 445.00 W/m2
09:29 52.9 °F 40.2 °F 30.07 in NW 2.0 mph 7.0 mph 62% 0.00 in 512.00 W/m2
09:34 53.0 °F 40.8 °F 30.07 in Calm   3.0 mph 63% 0.00 in 466.00 W/m2
09:39 53.0 °F 40.3 °F 30.07 in Calm   3.0 mph 62% 0.00 in 513.00 W/m2
09:44 52.9 °F 39.0 °F 30.07 in Calm     59% 0.00 in 489.00 W/m2
09:49 53.0 °F 39.1 °F 30.07 in Calm   3.0 mph 59% 0.00 in 555.00 W/m2
09:54 53.1 °F 38.7 °F 30.07 in NW 1.0 mph 2.0 mph 58% 0.00 in 598.00 W/m2
09:59 53.3 °F 38.9 °F 30.07 in Calm   3.0 mph 58% 0.00 in 599.00 W/m2
10:04 53.5 °F 40.4 °F 30.06 in Calm   3.0 mph 61% 0.00 in 631.00 W/m2
10:09 53.7 °F 41.4 °F 30.07 in NW 1.0 mph 3.0 mph 63% 0.00 in 638.00 W/m2
10:14 54.0 °F 39.6 °F 30.07 in NW 3.0 mph 4.0 mph 58% 0.00 in 642.00 W/m2
10:19 54.3 °F 39.0 °F 30.07 in NW 1.0 mph 3.0 mph 56% 0.00 in 663.00 W/m2
10:25 54.6 °F 40.1 °F 30.07 in NW 1.0 mph 1.0 mph 58% 0.00 in 677.00 W/m2
10:30 55.0 °F 40.5 °F 30.07 in Calm   4.0 mph 58% 0.00 in 638.00 W/m2
10:35 55.5 °F 39.6 °F 30.07 in Calm   7.0 mph 55% 0.00 in 687.00 W/m2
10:40 55.9 °F 39.5 °F 30.07 in Calm   3.0 mph 54% 0.00 in 714.00 W/m2
10:45 56.3 °F 39.9 °F 30.07 in Calm   3.0 mph 54% 0.00 in 728.00 W/m2
10:50 56.5 °F 39.6 °F 30.07 in Calm   4.0 mph 53% 0.00 in 729.00 W/m2
10:55 56.7 °F 40.7 °F 30.07 in Calm   2.0 mph 55% 0.00 in 721.00 W/m2
11:00 56.9 °F 40.0 °F 30.07 in Calm   5.0 mph 53% 0.00 in 708.00 W/m2
11:05 57.3 °F 41.3 °F 30.07 in WNW 2.0 mph 5.0 mph 55% 0.00 in 751.00 W/m2
11:10 57.7 °F 40.7 °F 30.06 in WNW 5.0 mph 8.0 mph 53% 0.00 in 773.00 W/m2
11:15 58.0 °F 41.5 °F 30.06 in NNW 2.0 mph 7.0 mph 54% 0.00 in 789.00 W/m2
11:20 58.6 °F 41.5 °F 30.06 in NW 1.0 mph 4.0 mph 53% 0.00 in 798.00 W/m2
11:25 59.0 °F 41.9 °F 30.06 in WNW 2.0 mph 8.0 mph 53% 0.00 in 816.00 W/m2
11:30 59.2 °F 42.1 °F 30.06 in Calm   5.0 mph 53% 0.00 in 826.00 W/m2
11:35 59.5 °F 42.4 °F 30.05 in Calm   4.0 mph 53% 0.00 in 810.00 W/m2
11:40 59.8 °F 42.7 °F 30.05 in Calm   4.0 mph 53% 0.00 in 842.00 W/m2
11:45 60.2 °F 42.5 °F 30.05 in WNW 4.0 mph 4.0 mph 52% 0.00 in 853.00 W/m2
11:50 60.6 °F 42.9 °F 30.05 in WNW 3.0 mph 4.0 mph 52% 0.00 in 853.00 W/m2
11:55 61.0 °F 43.3 °F 30.05 in WNW 2.0 mph 8.0 mph 52% 0.00 in 856.00 W/m2
12:00 61.4 °F 45.1 °F 30.05 in WNW 2.0 mph 6.0 mph 55% 0.00 in 867.00 W/m2
12:05 61.9 °F 43.6 °F 30.05 in Calm   6.0 mph 51% 0.00 in 844.00 W/m2
12:10 62.4 °F 43.5 °F 30.05 in NW 5.0 mph 7.0 mph 50% 0.00 in 847.00 W/m2
12:15 62.7 °F 43.3 °F 30.05 in Calm   6.0 mph 49% 0.00 in 865.00 W/m2
12:20 63.0 °F 43.0 °F 30.05 in NW 8.0 mph 8.0 mph 48% 0.00 in 842.00 W/m2
12:25 63.2 °F 43.2 °F 30.05 in Calm   7.0 mph 48% 0.00 in 872.00 W/m2
12:30 63.6 °F 43.6 °F 30.05 in NW 3.0 mph 6.0 mph 48% 0.00 in 867.00 W/m2
12:35 63.8 °F 43.8 °F 30.05 in NW 6.0 mph 6.0 mph 48% 0.00 in 851.00 W/m2
12:40 63.9 °F 43.3 °F 30.05 in NW 3.0 mph 9.0 mph 47% 0.00 in 860.00 W/m2
12:45 64.0 °F 42.3 °F 30.05 in NW 4.0 mph 9.0 mph 45% 0.00 in 856.00 W/m2
12:50 64.1 °F 43.5 °F 30.05 in WNW 5.0 mph 10.0 mph 47% 0.00 in 861.00 W/m2
12:55 64.4 °F 44.3 °F 30.05 in West 4.0 mph 10.0 mph 48% 0.00 in 863.00 W/m2
13:00 64.7 °F 43.5 °F 30.06 in WNW 3.0 mph 12.0 mph 46% 0.00 in 882.00 W/m2
13:05 64.9 °F 44.2 °F 30.05 in NW 2.0 mph 8.0 mph 47% 0.00 in 884.00 W/m2
13:10 64.9 °F 44.2 °F 30.05 in WNW 3.0 mph 11.0 mph 47% 0.00 in 879.00 W/m2
13:15 64.8 °F 44.7 °F 30.05 in NNW 2.0 mph 9.0 mph 48% 0.00 in 858.00 W/m2
13:20 64.7 °F 45.7 °F 30.05 in NW 9.0 mph 11.0 mph 50% 0.00 in 872.00 W/m2
13:25 64.7 °F 45.1 °F 30.06 in Calm   9.0 mph 49% 0.00 in 870.00 W/m2
13:30 64.6 °F 45.0 °F 30.06 in Calm   9.0 mph 49% 0.00 in 863.00 W/m2
13:35 64.7 °F 45.7 °F 30.06 in NW 1.0 mph 13.0 mph 50% 0.00 in 867.00 W/m2
13:40 64.9 °F 46.4 °F 30.06 in NW 1.0 mph 11.0 mph 51% 0.00 in 868.00 W/m2
13:45 64.9 °F 46.4 °F 30.06 in WNW 2.0 mph 12.0 mph 51% 0.00 in 840.00 W/m2
13:50 65.0 °F 46.5 °F 30.06 in Calm   11.0 mph 51% 0.00 in 846.00 W/m2
13:55 65.0 °F 45.9 °F 30.06 in NW 6.0 mph 11.0 mph 50% 0.00 in 851.00 W/m2
14:00 65.0 °F 46.5 °F 30.06 in Calm   13.0 mph 51% 0.00 in 830.00 W/m2
14:05 65.3 °F 46.2 °F 30.06 in WNW 2.0 mph 14.0 mph 50% 0.00 in 837.00 W/m2
14:10 64.9 °F 45.8 °F 30.06 in Calm   10.0 mph 50% 0.00 in 828.00 W/m2
14:15 64.6 °F 46.6 °F 30.06 in NW 8.0 mph 10.0 mph 52% 0.00 in 828.00 W/m2
14:20 64.6 °F 46.1 °F 30.06 in NW 2.0 mph 15.0 mph 51% 0.00 in 823.00 W/m2
14:25 64.3 °F 46.3 °F 30.05 in NW 6.0 mph 8.0 mph 52% 0.00 in 800.00 W/m2
14:30 64.2 °F 46.2 °F 30.05 in NW 2.0 mph 9.0 mph 52% 0.00 in 791.00 W/m2
14:35 64.3 °F 46.8 °F 30.05 in WNW 3.0 mph 7.0 mph 53% 0.00 in 761.00 W/m2
14:40 64.4 °F 46.9 °F 30.05 in WNW 4.0 mph 7.0 mph 53% 0.00 in 745.00 W/m2
14:45 64.5 °F 46.5 °F 30.05 in Calm   11.0 mph 52% 0.00 in 780.00 W/m2
14:50 64.7 °F 47.2 °F 30.05 in NW 4.0 mph 8.0 mph 53% 0.00 in 765.00 W/m2
14:55 64.9 °F 46.4 °F 30.05 in NNW 10.0 mph 10.0 mph 51% 0.00 in 770.00 W/m2
15:00 65.1 °F 46.5 °F 30.04 in WSW 4.0 mph 11.0 mph 51% 0.00 in 766.00 W/m2
15:05 65.4 °F 46.8 °F 30.04 in NW 2.0 mph 8.0 mph 51% 0.00 in 751.00 W/m2
15:10 65.6 °F 46.5 °F 30.04 in NNW 3.0 mph 7.0 mph 50% 0.00 in 744.00 W/m2
15:16 65.8 °F 46.7 °F 30.04 in West 1.0 mph 9.0 mph 50% 0.00 in 735.00 W/m2
15:21 66.0 °F 45.8 °F 30.03 in WNW 1.0 mph 6.0 mph 48% 0.00 in 721.00 W/m2
15:26 66.2 °F 46.0 °F 30.03 in WSW 2.0 mph 9.0 mph 48% 0.00 in 710.00 W/m2
15:31 66.3 °F 45.5 °F 30.03 in West 3.0 mph 6.0 mph 47% 0.00 in 696.00 W/m2
15:36 66.6 °F 45.2 °F 30.03 in WSW 2.0 mph 9.0 mph 46% 0.00 in 689.00 W/m2
15:41 66.8 °F 45.9 °F 30.02 in West 1.0 mph 8.0 mph 47% 0.00 in 671.00 W/m2
15:46 67.1 °F 45.7 °F 30.03 in West 3.0 mph 5.0 mph 46% 0.00 in 663.00 W/m2
15:51 67.3 °F 45.8 °F 30.02 in Calm   10.0 mph 46% 0.00 in 650.00 W/m2
15:56 67.6 °F 44.9 °F 30.02 in West 4.0 mph 9.0 mph 44% 0.00 in 638.00 W/m2
16:01 67.7 °F 44.4 °F 30.02 in NW 1.0 mph 7.0 mph 43% 0.00 in 619.00 W/m2
16:06 67.9 °F 45.8 °F 30.02 in West 2.0 mph 2.0 mph 45% 0.00 in 601.00 W/m2
16:11 68.0 °F 44.7 °F 30.02 in SW 1.0 mph 7.0 mph 43% 0.00 in 592.00 W/m2
16:16 68.0 °F 45.3 °F 30.02 in WSW 5.0 mph 8.0 mph 44% 0.00 in 577.00 W/m2
16:21 68.1 °F 44.8 °F 30.02 in NW 4.0 mph 4.0 mph 43% 0.00 in 554.00 W/m2
16:26 68.2 °F 44.9 °F 30.02 in Calm     43% 0.00 in 550.00 W/m2
16:31 68.2 °F 46.7 °F 30.02 in NW 2.0 mph 2.0 mph 46% 0.00 in 534.00 W/m2
16:36 68.3 °F 45.6 °F 30.02 in NNW 1.0 mph 1.0 mph 44% 0.00 in 520.00 W/m2
16:41 68.4 °F 46.2 °F 30.02 in WNW 1.0 mph 2.0 mph 45% 0.00 in 501.00 W/m2
16:46 68.4 °F 45.0 °F 30.02 in Calm     43% 0.00 in 475.00 W/m2
16:51 68.4 °F 46.2 °F 30.02 in West 1.0 mph 2.0 mph 45% 0.00 in 462.00 W/m2
16:56 68.4 °F 46.2 °F 30.02 in Calm     45% 0.00 in 438.00 W/m2
17:01 68.3 °F 46.2 °F 30.02 in Calm     45% 0.00 in 438.00 W/m2
17:06 68.3 °F 46.2 °F 30.01 in Calm     45% 0.00 in 418.00 W/m2
17:11 68.3 °F 46.2 °F 30.01 in WNW 1.0 mph 1.0 mph 45% 0.00 in 401.00 W/m2
17:12 68.3 °F 46.2 °F 30.01 in Calm   2.0 mph 45% 0.00 in 397.00 W/m2
17:17 68.3 °F 46.2 °F 30.01 in Calm   2.0 mph 45% 0.00 in 378.00 W/m2
17:22 68.3 °F 46.2 °F 30.01 in NW 1.0 mph 2.0 mph 45% 0.00 in 374.00 W/m2
17:27 68.2 °F 45.5 °F 30.01 in Calm     44% 0.00 in 352.00 W/m2
17:32 68.3 °F 47.3 °F 30.01 in Calm   1.0 mph 47% 0.00 in 343.00 W/m2
17:37 68.3 °F 48.4 °F 30.01 in WNW 2.0 mph 3.0 mph 49% 0.00 in 323.00 W/m2
17:42 68.2 °F 47.2 °F 30.01 in WNW 2.0 mph 5.0 mph 47% 0.00 in 299.00 W/m2
17:47 68.1 °F 47.1 °F 30.02 in WSW 6.0 mph 7.0 mph 47% 0.00 in 281.00 W/m2
17:52 68.1 °F 48.2 °F 30.02 in Calm   6.0 mph 49% 0.00 in 237.00 W/m2
17:57 67.9 °F 48.6 °F 30.02 in Calm   7.0 mph 50% 0.00 in 232.00 W/m2
18:02 67.5 °F 47.7 °F 30.02 in West 2.0 mph 8.0 mph 49% 0.00 in 236.00 W/m2
18:07 67.2 °F 47.4 °F 30.02 in Calm   2.0 mph 49% 0.00 in 225.00 W/m2
18:12 66.8 °F 47.0 °F 30.02 in West 3.0 mph 5.0 mph 49% 0.00 in 206.00 W/m2
18:17 66.5 °F 48.3 °F 30.02 in West 1.0 mph 3.0 mph 52% 0.00 in 156.00 W/m2
18:22 66.2 °F 47.6 °F 30.02 in Calm   7.0 mph 51% 0.00 in 153.00 W/m2
18:27 65.9 °F 47.3 °F 30.02 in West 3.0 mph 9.0 mph 51% 0.00 in 137.00 W/m2
18:32 65.4 °F 47.8 °F 30.02 in West 1.0 mph 6.0 mph 53% 0.00 in 114.00 W/m2
18:37 65.0 °F 47.5 °F 30.02 in WNW 5.0 mph 7.0 mph 53% 0.00 in 81.00 W/m2
18:42 64.5 °F 47.0 °F 30.02 in Calm   2.0 mph 53% 0.00 in 81.00 W/m2
18:47 64.1 °F 47.1 °F 30.02 in Calm   5.0 mph 54% 0.00 in 63.00 W/m2
18:52 63.8 °F 47.3 °F 30.02 in Calm   1.0 mph 55% 0.00 in 51.00 W/m2
18:57 63.5 °F 47.5 °F 30.02 in Calm   1.0 mph 56% 0.00 in 37.00 W/m2
19:02 63.4 °F 48.8 °F 30.02 in Calm     59% 0.00 in 26.00 W/m2
19:07 63.1 °F 49.0 °F 30.02 in Calm     60% 0.00 in 19.00 W/m2
19:12 62.8 °F 48.3 °F 30.02 in Calm     59% 0.00 in 14.00 W/m2
19:17 62.5 °F 48.9 °F 30.02 in Calm     61% 0.00 in 11.00 W/m2
19:22 62.1 °F 48.5 °F 30.02 in Calm     61% 0.00 in 7.00 W/m2
19:27 61.7 °F 48.1 °F 30.02 in Calm     61% 0.00 in 5.00 W/m2
19:32 61.2 °F 47.7 °F 30.02 in Calm     61% 0.00 in 0.00 W/m2
19:37 60.9 °F 48.2 °F 30.02 in Calm     63% 0.00 in 0.00 W/m2
19:42 60.7 °F 48.0 °F 30.02 in Calm     63% 0.00 in 0.00 W/m2
19:47 60.4 °F 48.2 °F 30.02 in Calm     64% 0.00 in 0.00 W/m2
19:52 60.1 °F 47.9 °F 30.02 in Calm     64% 0.00 in 0.00 W/m2
19:57 59.7 °F 47.9 °F 30.02 in Calm     65% 0.00 in 0.00 W/m2
20:02 59.4 °F 48.0 °F 30.02 in Calm     66% 0.00 in 0.00 W/m2
20:07 59.1 °F 47.4 °F 30.03 in Calm     65% 0.00 in 0.00 W/m2
20:12 58.9 °F 47.6 °F 30.03 in Calm     66% 0.00 in 0.00 W/m2
20:17 58.6 °F 46.9 °F 30.03 in Calm     65% 0.00 in 0.00 W/m2
20:19 58.5 °F 46.8 °F 30.03 in Calm     65% 0.00 in 0.00 W/m2
20:24 58.2 °F 47.3 °F 30.03 in Calm     67% 0.00 in 0.00 W/m2
20:29 58.0 °F 47.5 °F 30.03 in Calm     68% 0.00 in 0.00 W/m2
20:34 57.7 °F 46.8 °F 30.03 in Calm     67% 0.00 in 0.00 W/m2
20:39 57.3 °F 46.5 °F 30.03 in Calm     67% 0.00 in 0.00 W/m2
20:44 57.0 °F 46.6 °F 30.03 in Calm     68% 0.00 in 0.00 W/m2
20:49 56.9 °F 46.8 °F 30.03 in Calm     69% 0.00 in 0.00 W/m2
20:54 56.6 °F 46.2 °F 30.04 in Calm     68% 0.00 in 0.00 W/m2
20:59 56.2 °F 46.2 °F 30.03 in Calm     69% 0.00 in 0.00 W/m2
21:04 56.1 °F 46.5 °F 30.03 in Calm     70% 0.00 in 0.00 W/m2
21:09 56.0 °F 46.4 °F 30.04 in Calm     70% 0.00 in 0.00 W/m2
21:14 55.9 °F 46.3 °F 30.03 in Calm     70% 0.00 in 0.00 W/m2
21:19 55.8 °F 46.2 °F 30.03 in Calm     70% 0.00 in 0.00 W/m2
21:24 55.8 °F 46.2 °F 30.03 in Calm     70% 0.00 in 0.00 W/m2
21:29 55.7 °F 46.1 °F 30.03 in Calm     70% 0.00 in 0.00 W/m2
21:34 55.7 °F 46.5 °F 30.03 in Calm     71% 0.00 in 0.00 W/m2
21:39 55.6 °F 46.4 °F 30.03 in Calm     71% 0.00 in 0.00 W/m2
21:44 55.5 °F 46.3 °F 30.03 in Calm     71% 0.00 in 0.00 W/m2
21:49 55.4 °F 46.2 °F 30.03 in Calm     71% 0.00 in 0.00 W/m2
21:54 55.3 °F 46.1 °F 30.03 in ESE 1.0 mph 4.0 mph 71% 0.00 in 0.00 W/m2
21:59 55.3 °F 46.1 °F 30.03 in ESE 2.0 mph 4.0 mph 71% 0.00 in 0.00 W/m2
22:04 55.3 °F 46.4 °F 30.04 in Calm   1.0 mph 72% 0.00 in 0.00 W/m2
22:09 55.3 °F 46.8 °F 30.04 in Calm     73% 0.00 in 0.00 W/m2
22:15 55.2 °F 46.7 °F 30.04 in Calm     73% 0.00 in 0.00 W/m2
22:20 55.1 °F 46.6 °F 30.04 in Calm     73% 0.00 in 0.00 W/m2
22:25 54.9 °F 46.4 °F 30.04 in Calm     73% 0.00 in 0.00 W/m2
22:30 54.8 °F 46.7 °F 30.04 in Calm     74% 0.00 in 0.00 W/m2
22:35 54.7 °F 46.9 °F 30.04 in Calm     75% 0.00 in 0.00 W/m2
22:40 54.6 °F 46.8 °F 30.04 in Calm     75% 0.00 in 0.00 W/m2
22:45 54.5 °F 46.8 °F 30.04 in Calm   4.0 mph 75% 0.00 in 0.00 W/m2
22:50 54.4 °F 46.7 °F 30.04 in Calm   5.0 mph 75% 0.00 in 0.00 W/m2
22:55 54.3 °F 46.6 °F 30.04 in ESE 2.0 mph 6.0 mph 75% 0.00 in 0.00 W/m2
23:00 54.1 °F 46.4 °F 30.04 in Calm   4.0 mph 75% 0.00 in 0.00 W/m2
23:05 54.1 °F 46.4 °F 30.04 in Calm   5.0 mph 75% 0.00 in 0.00 W/m2
23:10 54.0 °F 46.6 °F 30.04 in Calm   1.0 mph 76% 0.00 in 0.00 W/m2
23:15 54.0 °F 46.6 °F 30.04 in Calm   4.0 mph 76% 0.00 in 0.00 W/m2
23:20 53.9 °F 46.5 °F 30.04 in Calm   5.0 mph 76% 0.00 in 0.00 W/m2
23:23 53.9 °F 46.5 °F 30.03 in ESE 2.0 mph 5.0 mph 76% 0.00 in 0.00 W/m2
23:28 53.8 °F 46.4 °F 30.03 in Calm   5.0 mph 76% 0.00 in 0.00 W/m2
23:33 53.8 °F 46.4 °F 30.04 in Calm     76% 0.00 in 0.00 W/m2
23:38 53.7 °F 46.3 °F 30.03 in SE 4.0 mph 6.0 mph 76% 0.00 in 0.00 W/m2
23:43 53.7 °F 46.3 °F 30.03 in Calm   6.0 mph 76% 0.00 in 0.00 W/m2
23:48 53.7 °F 46.3 °F 30.03 in ESE 5.0 mph 5.0 mph 76% 0.00 in 0.00 W/m2
23:53 53.6 °F 45.9 °F 30.03 in Calm   7.0 mph 75% 0.00 in 0.00 W/m2
23:58 53.6 °F 46.2 °F 30.03 in ESE 2.0 mph 8.0 mph 76% 0.00 in 0.00 W/m2
Foresthill Weather
 WU-history PHP script courtesy of   Juneau County Weather.
powered by Cumulus v1.9.3 (1059)
Ambient Weather VWS v14.00
Top Contact Website Map Copyright © 2007 - 2018 Foresthillweather.com Never base important decisions on this or any weather information obtained from the Internet